createdAt,value
2018-07-27T00:00:17.734Z,22.9
2018-07-27T00:01:17.762Z,22.88
2018-07-27T00:02:17.786Z,22.94
2018-07-27T00:03:17.820Z,22.9
2018-07-27T00:04:32.241Z,22.82
2018-07-27T00:05:17.862Z,22.82
2018-07-27T00:06:17.900Z,22.79
2018-07-27T00:07:17.660Z,22.76
2018-07-27T00:08:17.942Z,22.79
2018-07-27T00:09:32.631Z,22.88
2018-07-27T00:11:18.015Z,22.77
2018-07-27T00:12:18.043Z,22.72
2018-07-27T00:13:18.062Z,22.68
2018-07-27T00:14:18.098Z,22.8
2018-07-27T00:15:18.120Z,22.73
2018-07-27T00:16:18.145Z,22.72
2018-07-27T00:17:18.173Z,22.7
2018-07-27T00:18:18.196Z,22.67
2018-07-27T00:19:18.220Z,22.61
2018-07-27T00:20:18.248Z,22.62
2018-07-27T00:21:18.287Z,22.73
2018-07-27T00:22:18.298Z,22.65
2018-07-27T00:23:18.325Z,22.64
2018-07-27T00:24:18.354Z,22.64
2018-07-27T00:26:18.401Z,22.58
2018-07-27T00:27:18.428Z,22.58
2018-07-27T00:28:18.453Z,22.49
2018-07-27T00:29:18.225Z,22.54
2018-07-27T00:30:18.513Z,22.49
2018-07-27T00:31:18.532Z,22.61
2018-07-27T00:32:18.556Z,22.62
2018-07-27T00:33:18.577Z,22.42
2018-07-27T00:34:18.611Z,22.46
2018-07-27T00:35:18.633Z,22.54
2018-07-27T00:36:33.328Z,22.49
2018-07-27T00:37:18.685Z,22.43
2018-07-27T00:38:18.708Z,22.46
2018-07-27T00:39:18.478Z,22.45
2018-07-27T00:41:18.271Z,22.42
2018-07-27T00:42:18.815Z,22.37
2018-07-27T00:43:18.837Z,22.36
2018-07-27T00:44:18.872Z,22.36
2018-07-27T00:45:18.899Z,22.37
2018-07-27T00:46:18.666Z,22.33
2018-07-27T00:47:18.424Z,22.36
2018-07-27T00:48:18.968Z,22.33
2018-07-27T00:49:18.989Z,22.35
2018-07-27T00:50:19.024Z,22.3
2018-07-27T00:51:19.042Z,22.31
2018-07-27T00:52:33.471Z,22.31
2018-07-27T00:53:19.093Z,22.25
2018-07-27T00:54:19.117Z,22.27
2018-07-27T00:56:19.170Z,22.21
2018-07-27T00:57:19.193Z,22.27
2018-07-27T00:58:19.219Z,22.25
2018-07-27T00:59:19.245Z,22.22
2018-07-27T01:00:19.274Z,22.25
2018-07-27T01:01:19.305Z,22.28
2018-07-27T01:02:19.327Z,22.17
2018-07-27T01:03:19.096Z,22.12
2018-07-27T01:04:19.374Z,22.15
2018-07-27T01:05:19.402Z,22.12
2018-07-27T01:06:19.423Z,22.1
2018-07-27T01:07:19.456Z,22.14
2018-07-27T01:08:34.137Z,22.15
2018-07-27T01:09:19.500Z,22.14
2018-07-27T01:10:19.528Z,22.1
2018-07-27T01:11:19.553Z,22.06
2018-07-27T01:12:19.578Z,22.15
2018-07-27T01:13:19.602Z,22.1
2018-07-27T01:14:19.628Z,22.09
2018-07-27T01:15:19.651Z,22.14
2018-07-27T01:16:34.343Z,21.99
2018-07-27T01:17:19.703Z,22
2018-07-27T01:18:19.739Z,22.12
2018-07-27T01:19:34.418Z,22.1
2018-07-27T01:20:19.779Z,22.06
2018-07-27T01:21:19.547Z,21.98
2018-07-27T01:22:19.830Z,22
2018-07-27T01:23:19.856Z,22
2018-07-27T01:25:34.578Z,21.99
2018-07-27T01:26:19.937Z,22.05
2018-07-27T01:27:19.956Z,21.94
2018-07-27T01:28:19.982Z,21.86
2018-07-27T01:30:20.035Z,21.91
2018-07-27T01:31:19.806Z,21.96
2018-07-27T01:32:20.090Z,21.94
2018-07-27T01:33:34.773Z,21.86
2018-07-27T01:34:20.136Z,21.88
2018-07-27T01:35:20.166Z,21.86
2018-07-27T01:36:34.848Z,21.83
2018-07-27T01:37:19.961Z,21.82
2018-07-27T01:38:20.024Z,21.8
2018-07-27T01:39:34.926Z,21.75
2018-07-27T01:40:20.300Z,21.79
2018-07-27T01:41:20.312Z,21.71
2018-07-27T01:42:20.345Z,21.83
2018-07-27T01:43:20.365Z,21.69
2018-07-27T01:44:20.394Z,21.69
2018-07-27T01:45:20.418Z,21.71
2018-07-27T01:47:35.132Z,21.69
2018-07-27T01:48:20.495Z,21.71
2018-07-27T01:49:20.515Z,21.71
2018-07-27T01:50:20.548Z,21.71
2018-07-27T01:51:20.572Z,21.71
2018-07-27T01:52:20.338Z,21.61
2018-07-27T01:53:20.620Z,21.56
2018-07-27T01:54:20.642Z,21.61
2018-07-27T01:55:20.671Z,21.65
2018-07-27T01:56:20.696Z,21.61
2018-07-27T01:57:20.717Z,21.53
2018-07-27T01:59:20.767Z,21.62
2018-07-27T02:00:20.542Z,21.54
2018-07-27T02:01:20.820Z,21.5
2018-07-27T02:02:20.842Z,21.61
2018-07-27T02:03:20.883Z,21.58
2018-07-27T02:04:35.559Z,21.52
2018-07-27T02:05:20.924Z,21.5
2018-07-27T02:06:20.948Z,21.4
2018-07-27T02:07:20.974Z,21.44
2018-07-27T02:08:20.999Z,21.34
2018-07-27T02:09:21.020Z,21.42
2018-07-27T02:10:21.045Z,21.46
2018-07-27T02:12:20.839Z,21.44
2018-07-27T02:13:21.124Z,21.43
2018-07-27T02:15:20.937Z,21.35
2018-07-27T02:16:21.201Z,21.35
2018-07-27T02:17:21.223Z,21.34
2018-07-27T02:18:21.250Z,21.37
2018-07-27T02:19:21.276Z,21.31
2018-07-27T02:20:21.304Z,21.4
2018-07-27T02:21:35.988Z,21.34
2018-07-27T02:22:21.357Z,21.4
2018-07-27T02:23:21.119Z,21.35
2018-07-27T02:24:21.142Z,21.32
2018-07-27T02:25:21.426Z,21.25
2018-07-27T02:26:21.453Z,21.24
2018-07-27T02:27:36.139Z,21.22
2018-07-27T02:28:21.509Z,21.28
2018-07-27T02:29:21.267Z,21.22
2018-07-27T02:30:21.553Z,21.14
2018-07-27T02:31:21.584Z,21.14
2018-07-27T02:32:21.090Z,21.14
2018-07-27T02:34:36.317Z,21.13
2018-07-27T02:35:21.431Z,21.03
2018-07-27T02:36:21.704Z,21.09
2018-07-27T02:37:36.389Z,21.1
2018-07-27T02:38:21.754Z,21.03
2018-07-27T02:39:21.272Z,21.04
2018-07-27T02:40:21.805Z,21.04
2018-07-27T02:41:21.941Z,21.03
2018-07-27T02:42:21.855Z,20.94
2018-07-27T02:43:36.282Z,20.95
2018-07-27T02:44:21.912Z,21.06
2018-07-27T02:45:36.599Z,20.97
2018-07-27T02:46:21.964Z,20.99
2018-07-27T02:47:21.981Z,21.06
2018-07-27T02:48:21.757Z,21.06
2018-07-27T02:49:22.039Z,20.95
2018-07-27T02:50:22.059Z,20.95
2018-07-27T02:52:22.104Z,21.06
2018-07-27T02:53:22.133Z,20.97
2018-07-27T02:54:22.155Z,20.92
2018-07-27T02:55:22.256Z,20.95
2018-07-27T02:56:22.308Z,21.01
2018-07-27T02:57:22.239Z,20.99
2018-07-27T02:58:22.253Z,20.99
2018-07-27T03:01:22.334Z,20.98
2018-07-27T03:02:22.099Z,20.92
2018-07-27T03:03:22.388Z,20.92
2018-07-27T03:04:22.157Z,20.92
2018-07-27T03:05:22.188Z,20.94
2018-07-27T03:06:22.462Z,20.94
2018-07-27T03:07:22.485Z,20.85
2018-07-27T03:08:22.510Z,20.91
2018-07-27T03:09:37.202Z,20.88
2018-07-27T03:10:22.560Z,20.87
2018-07-27T03:11:22.600Z,20.95
2018-07-27T03:12:22.619Z,20.91
2018-07-27T03:13:22.633Z,20.95
2018-07-27T03:14:37.327Z,20.97
2018-07-27T03:15:22.694Z,20.91
2018-07-27T03:16:22.196Z,20.97
2018-07-27T03:17:22.740Z,20.91
2018-07-27T03:18:22.760Z,20.92
2018-07-27T03:19:22.787Z,20.91
2018-07-27T03:20:22.817Z,20.91
2018-07-27T03:21:37.498Z,20.88
2018-07-27T03:22:22.865Z,20.91
2018-07-27T03:23:22.885Z,20.95
2018-07-27T03:24:22.908Z,20.91
2018-07-27T03:25:22.684Z,20.87
2018-07-27T03:26:22.967Z,20.87
2018-07-27T03:27:22.991Z,20.92
2018-07-27T03:28:22.768Z,20.92
2018-07-27T03:29:23.044Z,20.97
2018-07-27T03:30:23.078Z,20.89
2018-07-27T03:31:23.083Z,20.95
2018-07-27T03:32:22.852Z,20.91
2018-07-27T03:33:23.136Z,20.97
2018-07-27T03:34:23.162Z,20.92
2018-07-27T03:35:23.190Z,20.95
2018-07-27T03:36:23.214Z,20.95
2018-07-27T03:37:22.977Z,20.95
2018-07-27T03:38:23.488Z,20.94
2018-07-27T03:39:23.027Z,21.06
2018-07-27T03:40:37.970Z,21.09
2018-07-27T03:41:23.080Z,21.04
2018-07-27T03:43:23.546Z,21.04
2018-07-27T03:44:23.411Z,21.07
2018-07-27T03:45:23.434Z,21.07
2018-07-27T03:46:38.122Z,21.07
2018-07-27T03:48:23.613Z,21.19
2018-07-27T03:49:23.534Z,21.19
2018-07-27T03:51:23.328Z,21.19
2018-07-27T03:52:23.356Z,21.17
2018-07-27T03:53:23.380Z,21.24
2018-07-27T03:54:23.690Z,21.21
2018-07-27T03:55:23.685Z,21.25
2018-07-27T03:56:23.707Z,21.31
2018-07-27T03:57:23.734Z,21.32
2018-07-27T03:58:23.767Z,21.29
2018-07-27T03:59:23.530Z,21.37
2018-07-27T04:00:23.808Z,21.37
2018-07-27T04:01:23.837Z,21.37
2018-07-27T04:02:38.531Z,21.44
2018-07-27T04:03:23.372Z,21.38
2018-07-27T04:04:23.655Z,21.35
2018-07-27T04:05:23.686Z,21.35
2018-07-27T04:06:23.963Z,21.4
2018-07-27T04:07:23.841Z,21.42
2018-07-27T04:08:24.013Z,21.49
2018-07-27T04:09:24.037Z,21.44
2018-07-27T04:10:23.806Z,21.37
2018-07-27T04:11:24.085Z,21.34
2018-07-27T04:12:23.859Z,21.42
2018-07-27T04:13:24.139Z,21.37
2018-07-27T04:14:24.161Z,21.35
2018-07-27T04:15:23.930Z,21.35
2018-07-27T04:16:23.963Z,21.52
2018-07-27T04:17:24.239Z,21.53
2018-07-27T04:18:38.924Z,21.43
2018-07-27T04:19:24.289Z,21.59
2018-07-27T04:20:24.321Z,21.46
2018-07-27T04:21:24.340Z,21.58
2018-07-27T04:22:24.439Z,21.68
2018-07-27T04:23:24.388Z,21.77
2018-07-27T04:24:24.416Z,21.83
2018-07-27T04:25:24.443Z,21.83
2018-07-27T04:26:24.774Z,21.99
2018-07-27T04:27:24.519Z,22.02
2018-07-27T04:28:24.520Z,21.96
2018-07-27T04:29:39.203Z,22.1
2018-07-27T04:30:24.568Z,22.02
2018-07-27T04:31:24.335Z,22.1
2018-07-27T04:32:24.364Z,22.06
2018-07-27T04:33:24.647Z,22.1
2018-07-27T04:34:39.331Z,22.15
2018-07-27T04:35:24.694Z,22.06
2018-07-27T04:36:24.722Z,21.96
2018-07-27T04:37:24.486Z,22.05
2018-07-27T04:39:24.800Z,22.21
2018-07-27T04:41:24.847Z,22.22
2018-07-27T04:42:24.870Z,22.31
2018-07-27T04:43:39.561Z,22.33
2018-07-27T04:44:24.926Z,22.39
2018-07-27T04:45:24.954Z,22.47
2018-07-27T04:46:24.714Z,22.49
2018-07-27T04:47:25.000Z,22.61
2018-07-27T04:48:25.024Z,22.6
2018-07-27T04:49:39.714Z,22.6
2018-07-27T04:51:25.109Z,22.79
2018-07-27T04:52:25.126Z,22.95
2018-07-27T04:53:25.154Z,23.07
2018-07-27T04:54:25.180Z,23.51
2018-07-27T04:55:25.210Z,24.22
2018-07-27T04:56:39.973Z,25.06
2018-07-27T04:57:25.257Z,25.46
2018-07-27T04:58:25.280Z,26.09
2018-07-27T04:59:25.053Z,26.57
2018-07-27T05:00:24.822Z,26.97
2018-07-27T05:01:25.411Z,27.21
2018-07-27T05:02:25.388Z,27.69
2018-07-27T05:03:25.161Z,27.96
2018-07-27T05:04:25.190Z,28.29
2018-07-27T05:05:25.477Z,28.4
2018-07-27T05:06:25.500Z,28.74
2018-07-27T05:07:25.533Z,29.12
2018-07-27T05:08:25.314Z,29.27
2018-07-27T05:09:25.589Z,29.55
2018-07-27T05:11:25.663Z,30.13
2018-07-27T05:12:40.346Z,30.62
2018-07-27T05:13:25.714Z,30.65
2018-07-27T05:14:40.403Z,30.86
2018-07-27T05:15:25.776Z,30.94
2018-07-27T05:16:40.465Z,31.02
2018-07-27T05:17:25.838Z,31.1
2018-07-27T05:18:25.799Z,31.44
2018-07-27T05:20:25.930Z,31.78
2018-07-27T05:21:40.676Z,31.92
2018-07-27T05:22:25.993Z,32.07
2018-07-27T05:23:26.028Z,32.06
2018-07-27T05:24:26.067Z,32.47
2018-07-27T05:25:25.838Z,32.33
2018-07-27T05:26:26.123Z,32.26
2018-07-27T05:27:40.820Z,32.43
2018-07-27T05:28:26.194Z,32.77
2018-07-27T05:29:25.959Z,32.96
2018-07-27T05:30:40.964Z,33.32
2018-07-27T05:31:26.335Z,33.5
2018-07-27T05:32:26.059Z,33.56
2018-07-27T05:33:26.350Z,33.82
2018-07-27T05:34:26.652Z,34.21
2018-07-27T05:35:26.162Z,34.34
2018-07-27T05:36:26.457Z,34.62
2018-07-27T05:37:41.154Z,34.75
2018-07-27T05:39:26.040Z,34.56
2018-07-27T05:40:41.260Z,34.92
2018-07-27T05:41:26.627Z,35.25
2018-07-27T05:42:26.657Z,35.36
2018-07-27T05:43:26.691Z,35.31
2018-07-27T05:44:26.729Z,34.99
2018-07-27T05:45:26.762Z,34.65
2018-07-27T05:46:26.796Z,34.82
2018-07-27T05:47:26.835Z,35.37
2018-07-27T05:48:26.870Z,35.82
2018-07-27T05:50:26.941Z,35.71
2018-07-27T05:51:26.976Z,35.55
2018-07-27T05:52:27.008Z,35.99
2018-07-27T05:53:41.716Z,36.38
2018-07-27T05:54:27.087Z,36.28
2018-07-27T05:55:27.113Z,35.4
2018-07-27T05:56:27.152Z,34.99
2018-07-27T05:57:27.184Z,35.41
2018-07-27T05:58:27.224Z,35.45
2018-07-27T05:59:42.007Z,35.72
2018-07-27T06:00:27.293Z,35.66
2018-07-27T06:02:27.375Z,36.71
2018-07-27T06:03:27.404Z,36.53
2018-07-27T06:04:27.438Z,36.75
2018-07-27T06:05:27.219Z,36.23
2018-07-27T06:06:27.510Z,36.56
2018-07-27T06:07:27.548Z,36.9
2018-07-27T06:08:27.590Z,36.98
2018-07-27T06:09:42.286Z,36.64
2018-07-27T06:10:27.757Z,36.81
2018-07-27T06:11:27.697Z,37.05
2018-07-27T06:12:27.731Z,37.28
2018-07-27T06:14:27.902Z,37.29
2018-07-27T06:15:27.844Z,37.79
2018-07-27T06:16:27.876Z,37.89
2018-07-27T06:17:27.932Z,38.18
2018-07-27T06:18:27.954Z,37.62
2018-07-27T06:19:27.736Z,37.03
2018-07-27T06:20:28.033Z,36.95
2018-07-27T06:21:28.069Z,37.02
2018-07-27T06:22:27.947Z,37.27
2018-07-27T06:24:42.845Z,38.06
2018-07-27T06:25:27.965Z,37.96
2018-07-27T06:26:27.995Z,38.18
2018-07-27T06:27:28.041Z,38.37
2018-07-27T06:28:28.380Z,38.22
2018-07-27T06:29:28.486Z,38.15
2018-07-27T06:30:28.409Z,38.61
2018-07-27T06:31:28.205Z,38.53
2018-07-27T06:32:28.495Z,38.25
2018-07-27T06:33:28.263Z,38.59
2018-07-27T06:34:28.298Z,39.1
2018-07-27T06:35:28.594Z,38.83
2018-07-27T06:36:28.633Z,38.84
2018-07-27T06:37:28.673Z,38.71
2018-07-27T06:38:28.452Z,38.74
2018-07-27T06:39:28.764Z,38.6
2018-07-27T06:40:28.786Z,38.44
2018-07-27T06:41:28.601Z,38.57
2018-07-27T06:43:43.574Z,38.13
2018-07-27T06:46:29.024Z,39.22
2018-07-27T06:47:43.725Z,39.06
2018-07-27T06:48:29.095Z,38.95
2018-07-27T06:49:28.875Z,39.1
2018-07-27T06:50:43.581Z,39.06
2018-07-27T06:51:28.954Z,39.04
2018-07-27T06:52:29.409Z,38.95
2018-07-27T06:53:29.294Z,39.16
2018-07-27T06:54:29.071Z,39.57
2018-07-27T06:55:29.372Z,39.52
2018-07-27T06:56:44.068Z,38.79
2018-07-27T06:57:29.442Z,38.87
2018-07-27T06:58:44.155Z,38.95
2018-07-27T06:59:29.008Z,38.99
2018-07-27T07:01:29.620Z,39.01
2018-07-27T07:02:29.638Z,39.33
2018-07-27T07:03:29.932Z,39.55
2018-07-27T07:04:44.383Z,39.67
2018-07-27T07:05:29.787Z,39.82
2018-07-27T07:06:44.460Z,39.97
2018-07-27T07:07:29.938Z,40.27
2018-07-27T07:08:29.881Z,40.35
2018-07-27T07:10:29.950Z,39.69
2018-07-27T07:11:29.991Z,39.51
2018-07-27T07:12:44.695Z,39.6
2018-07-27T07:13:30.071Z,39.81
2018-07-27T07:14:30.219Z,39.51
2018-07-27T07:15:30.143Z,39.59
2018-07-27T07:16:30.187Z,39.47
2018-07-27T07:17:29.968Z,38.96
2018-07-27T07:18:30.267Z,38.69
2018-07-27T07:19:30.422Z,39.06
2018-07-27T07:20:30.352Z,39.54
2018-07-27T07:21:30.380Z,39.69
2018-07-27T07:22:30.420Z,39.97
2018-07-27T07:23:30.459Z,40.06
2018-07-27T07:24:30.507Z,40.16
2018-07-27T07:25:31.024Z,39.79
2018-07-27T07:26:30.574Z,39.77
2018-07-27T07:28:45.319Z,40.35
2018-07-27T07:29:30.694Z,40.26
2018-07-27T07:30:30.736Z,40.03
2018-07-27T07:31:30.516Z,39.98
2018-07-27T07:32:30.811Z,40.46
2018-07-27T07:33:30.856Z,40.51
2018-07-27T07:34:30.890Z,40.34
2018-07-27T07:35:30.928Z,40.35
2018-07-27T07:36:30.966Z,40.22
2018-07-27T07:37:45.673Z,39.89
2018-07-27T07:38:31.053Z,39.94
2018-07-27T07:39:31.088Z,40.07
2018-07-27T07:40:31.125Z,40.15
2018-07-27T07:41:31.159Z,40.23
2018-07-27T07:42:31.202Z,39.94
2018-07-27T07:43:31.239Z,39.91
2018-07-27T07:44:45.947Z,39.96
2018-07-27T07:46:31.362Z,39.22
2018-07-27T07:47:31.141Z,39.06
2018-07-27T07:48:31.434Z,39.72
2018-07-27T07:49:31.254Z,40.13
2018-07-27T07:50:31.516Z,40.16
2018-07-27T07:51:31.557Z,40.31
2018-07-27T07:52:31.336Z,40.16
2018-07-27T07:53:31.636Z,40
2018-07-27T07:54:31.673Z,40.2
2018-07-27T07:55:31.711Z,40.26
2018-07-27T07:56:31.752Z,40.41
2018-07-27T07:57:31.788Z,40.19
2018-07-27T07:58:31.839Z,39.98
2018-07-27T07:59:46.535Z,39.75
2018-07-27T08:00:31.652Z,39.73
2018-07-27T08:01:31.949Z,40.08
2018-07-27T08:02:31.986Z,40.54
2018-07-27T08:03:32.029Z,40.26
2018-07-27T08:04:32.074Z,40.07
2018-07-27T08:05:46.808Z,39.6
2018-07-27T08:06:31.887Z,39.7
2018-07-27T08:07:32.186Z,40.03
2018-07-27T08:08:32.228Z,39.75
2018-07-27T08:09:32.261Z,39.41
2018-07-27T08:10:32.042Z,39.11
2018-07-27T08:11:32.078Z,39.25
2018-07-27T08:12:32.122Z,39.36
2018-07-27T08:13:32.166Z,39.5
2018-07-27T08:14:32.455Z,39.55
2018-07-27T08:15:32.504Z,39.62
2018-07-27T08:17:32.568Z,38.72
2018-07-27T08:18:32.615Z,38.71
2018-07-27T08:19:32.648Z,38.6
2018-07-27T08:20:32.683Z,38.6
2018-07-27T08:21:32.471Z,38.88
2018-07-27T08:22:32.511Z,38.99
2018-07-27T08:23:32.803Z,38.74
2018-07-27T08:24:32.844Z,38.91
2018-07-27T08:25:32.621Z,38.78
2018-07-27T08:26:32.919Z,39.06
2018-07-27T08:27:47.618Z,38.86
2018-07-27T08:28:32.999Z,38.76
2018-07-27T08:29:33.041Z,38.91
2018-07-27T08:30:32.812Z,38.93
2018-07-27T08:31:47.786Z,38.4
2018-07-27T08:32:33.150Z,38.03
2018-07-27T08:33:33.186Z,38.32
2018-07-27T08:34:33.226Z,38.76
2018-07-27T08:35:33.264Z,38.66
2018-07-27T08:36:33.301Z,38.84
2018-07-27T08:37:33.086Z,38.98
2018-07-27T08:38:33.118Z,38.76
2018-07-27T08:39:33.224Z,38.63
2018-07-27T08:40:33.455Z,38.93
2018-07-27T08:41:33.492Z,39.1
2018-07-27T08:42:33.525Z,39.52
2018-07-27T08:43:33.568Z,39.64
2018-07-27T08:44:33.605Z,38.91
2018-07-27T08:45:33.639Z,39.09
2018-07-27T08:46:33.164Z,39.06
2018-07-27T08:48:33.240Z,39.21
2018-07-27T08:49:33.795Z,39.09
2018-07-27T08:50:33.835Z,38.61
2018-07-27T08:51:33.867Z,38.52
2018-07-27T08:52:33.908Z,38.68
2018-07-27T08:53:33.686Z,38.83
2018-07-27T08:54:48.648Z,39.36
2018-07-27T08:55:33.765Z,39.66
2018-07-27T08:56:34.061Z,39.85
2018-07-27T08:57:48.501Z,38.87
2018-07-27T08:58:34.132Z,38.34
2018-07-27T08:59:34.169Z,38.07
2018-07-27T09:00:34.208Z,38.49
2018-07-27T09:02:34.284Z,38.98
2018-07-27T09:03:48.771Z,39.06
2018-07-27T09:04:34.094Z,39.1
2018-07-27T09:05:34.134Z,37.88
2018-07-27T09:06:34.453Z,36.72
2018-07-27T09:07:34.464Z,35.99
2018-07-27T09:08:34.508Z,35.9
2018-07-27T09:09:49.207Z,35.7
2018-07-27T09:10:34.319Z,35.96
2018-07-27T09:11:34.621Z,36.64
2018-07-27T09:12:34.391Z,36.6
2018-07-27T09:13:34.431Z,36.16
2018-07-27T09:14:34.726Z,35.34
2018-07-27T09:15:34.762Z,34.53
2018-07-27T09:16:34.795Z,34.4
2018-07-27T09:17:34.834Z,34.1
2018-07-27T09:18:34.868Z,33.97
2018-07-27T09:19:49.309Z,34.1
2018-07-27T09:20:34.943Z,34.44
2018-07-27T09:21:34.980Z,34.44
2018-07-27T09:22:34.762Z,34.03
2018-07-27T09:23:35.047Z,34.08
2018-07-27T09:24:35.813Z,34.61
2018-07-27T09:25:34.864Z,35.41
2018-07-27T09:26:35.151Z,36.05
2018-07-27T09:27:35.186Z,35.85
2018-07-27T09:28:34.964Z,35.93
2018-07-27T09:29:35.252Z,35.82
2018-07-27T09:30:35.292Z,35.82
2018-07-27T09:31:35.070Z,36.23
2018-07-27T09:32:35.359Z,36.56
2018-07-27T09:33:35.397Z,36.62
2018-07-27T09:34:50.099Z,35.97
2018-07-27T09:35:35.703Z,35.55
2018-07-27T09:36:35.508Z,34.69
2018-07-27T09:38:35.318Z,34.49
2018-07-27T09:39:35.620Z,34.78
2018-07-27T09:40:35.577Z,34.96
2018-07-27T09:41:35.162Z,35.29
2018-07-27T09:42:35.197Z,35.26
2018-07-27T09:43:35.745Z,35.81
2018-07-27T09:44:35.529Z,36.41
2018-07-27T09:45:35.561Z,37.07
2018-07-27T09:46:35.711Z,37.43
2018-07-27T09:47:35.629Z,38.46
2018-07-27T09:48:35.927Z,38.69
2018-07-27T09:49:35.958Z,38.81
2018-07-27T09:50:35.736Z,38.16
2018-07-27T09:51:36.186Z,38.07
2018-07-27T09:52:36.065Z,38.13
2018-07-27T09:53:36.099Z,37.91
2018-07-27T09:54:36.130Z,36.83
2018-07-27T09:55:35.915Z,36.31
2018-07-27T09:57:50.972Z,37.06
2018-07-27T09:58:36.281Z,37.6
2018-07-27T09:59:36.053Z,37.15
2018-07-27T10:00:36.346Z,36.32
2018-07-27T10:01:36.383Z,35.68
2018-07-27T10:02:51.077Z,35.85
2018-07-27T10:03:36.450Z,36.5
2018-07-27T10:04:36.592Z,36.91
2018-07-27T10:05:36.517Z,36.6
2018-07-27T10:06:51.216Z,36.51
2018-07-27T10:07:36.593Z,36.59
2018-07-27T10:08:36.623Z,36.9
2018-07-27T10:10:36.694Z,37.49
2018-07-27T10:11:36.727Z,37.18
2018-07-27T10:12:36.510Z,36.83
2018-07-27T10:13:36.801Z,36.94
2018-07-27T10:14:36.835Z,37.21
2018-07-27T10:15:36.873Z,37.86
2018-07-27T10:16:51.566Z,37.82
2018-07-27T10:17:36.681Z,38.06
2018-07-27T10:18:36.891Z,37.32
2018-07-27T10:19:37.011Z,36.37
2018-07-27T10:20:36.527Z,35.47
2018-07-27T10:21:37.081Z,35.26
2018-07-27T10:22:51.773Z,35.6
2018-07-27T10:23:37.149Z,35.96
2018-07-27T10:24:36.925Z,36.43
2018-07-27T10:25:36.955Z,36.9
2018-07-27T10:26:37.250Z,37.51
2018-07-27T10:27:37.285Z,38.04
2018-07-27T10:28:37.373Z,38.16
2018-07-27T10:29:37.405Z,37.75
2018-07-27T10:30:52.052Z,36.22
2018-07-27T10:31:37.428Z,36.32
2018-07-27T10:32:52.119Z,36.91
2018-07-27T10:33:37.490Z,36.66
2018-07-27T10:34:37.531Z,36.47
2018-07-27T10:35:37.559Z,35.97
2018-07-27T10:36:37.593Z,35.72
2018-07-27T10:37:37.370Z,35.44
2018-07-27T10:38:52.327Z,35.71
2018-07-27T10:39:37.697Z,35.82
2018-07-27T10:40:37.735Z,36.01
2018-07-27T10:41:37.767Z,35.23
2018-07-27T10:42:37.543Z,34.82
2018-07-27T10:43:37.573Z,34.85
2018-07-27T10:44:37.868Z,35.03
2018-07-27T10:45:37.646Z,35.02
2018-07-27T10:46:37.936Z,34.82
2018-07-27T10:47:37.974Z,34.8
2018-07-27T10:48:52.411Z,34.47
2018-07-27T10:49:52.702Z,34.35
2018-07-27T10:50:38.076Z,34.52
2018-07-27T10:51:38.121Z,34.91
2018-07-27T10:52:38.151Z,35.04
2018-07-27T10:53:38.181Z,35.45
2018-07-27T10:54:52.616Z,35.47
2018-07-27T10:55:37.988Z,35.56
2018-07-27T10:56:37.762Z,35.55
2018-07-27T10:57:38.549Z,35.33
2018-07-27T10:58:38.359Z,35.19
2018-07-27T10:59:38.394Z,35.43
2018-07-27T11:00:38.156Z,35.34
2018-07-27T11:01:38.449Z,35.02
2018-07-27T11:02:53.147Z,34.82
2018-07-27T11:03:53.181Z,34.77
2018-07-27T11:04:38.288Z,34.66
2018-07-27T11:05:38.326Z,34.84
2018-07-27T11:06:38.100Z,34.61
2018-07-27T11:07:38.393Z,34.64
2018-07-27T11:08:38.447Z,34.99
2018-07-27T11:09:53.145Z,34.69
2018-07-27T11:11:38.526Z,34.54
2018-07-27T11:12:38.820Z,34.3
2018-07-27T11:14:38.628Z,34
2018-07-27T11:15:38.663Z,34.13
2018-07-27T11:16:38.436Z,34.28
2018-07-27T11:17:39.209Z,34.64
2018-07-27T11:18:53.681Z,34.82
2018-07-27T11:19:38.539Z,34.89
2018-07-27T11:20:39.084Z,34.87
2018-07-27T11:21:39.116Z,34.88
2018-07-27T11:22:39.147Z,35.07
2018-07-27T11:23:39.184Z,35.07
2018-07-27T11:24:39.228Z,35.04
2018-07-27T11:25:39.535Z,34.54
2018-07-27T11:26:39.284Z,34.34
2018-07-27T11:27:39.313Z,34.34
2018-07-27T11:28:39.356Z,34.49
2018-07-27T11:29:39.121Z,34.66
2018-07-27T11:30:39.413Z,34.53
2018-07-27T11:31:54.113Z,34.77
2018-07-27T11:32:54.145Z,34.82
2018-07-27T11:33:39.254Z,34.97
2018-07-27T11:34:39.541Z,34.99
2018-07-27T11:35:39.322Z,35.02
2018-07-27T11:36:39.613Z,34.99
2018-07-27T11:37:39.647Z,34.92
2018-07-27T11:38:39.164Z,34.82
2018-07-27T11:40:39.487Z,34.8
2018-07-27T11:41:54.441Z,34.3
2018-07-27T11:42:39.648Z,33.82
2018-07-27T11:43:39.324Z,33.66
2018-07-27T11:45:39.904Z,33.6
2018-07-27T11:46:39.937Z,33.16
2018-07-27T11:47:39.972Z,33.09
2018-07-27T11:48:39.999Z,32.93
2018-07-27T11:49:40.144Z,33.22
2018-07-27T11:50:40.069Z,33.54
2018-07-27T11:51:40.102Z,33.73
2018-07-27T11:52:39.874Z,33.95
2018-07-27T11:53:39.917Z,33.97
2018-07-27T11:54:40.194Z,34.08
2018-07-27T11:55:39.712Z,34.05
2018-07-27T11:56:40.260Z,33.47
2018-07-27T11:57:54.955Z,33.22
2018-07-27T11:58:40.333Z,33.23
2018-07-27T11:59:40.361Z,33.35
2018-07-27T12:00:40.492Z,33.56
2018-07-27T12:01:40.605Z,33.31
2018-07-27T12:02:40.462Z,33.22
2018-07-27T12:03:40.495Z,32.94
2018-07-27T12:04:40.259Z,32.75
2018-07-27T12:05:40.551Z,32.89
2018-07-27T12:06:40.356Z,33.19
2018-07-27T12:07:40.361Z,33.18
2018-07-27T12:08:40.653Z,33.19
2018-07-27T12:09:40.678Z,33.35
2018-07-27T12:10:40.453Z,33.54
2018-07-27T12:11:40.488Z,33.63
2018-07-27T12:12:40.777Z,33.6
2018-07-27T12:13:55.643Z,33.41
2018-07-27T12:14:41.918Z,33.31
2018-07-27T12:15:40.871Z,33.38
2018-07-27T12:16:40.900Z,33.44
2018-07-27T12:17:40.936Z,33
2018-07-27T12:18:40.965Z,33.07
2018-07-27T12:19:41.001Z,33.16
2018-07-27T12:20:41.298Z,33.22
2018-07-27T12:22:55.755Z,33.94
2018-07-27T12:23:41.121Z,34.19
2018-07-27T12:24:55.820Z,34.27
2018-07-27T12:25:41.188Z,34.32
2018-07-27T12:26:41.226Z,34.47
2018-07-27T12:27:40.996Z,34.69
2018-07-27T12:28:41.281Z,34.46
2018-07-27T12:29:55.721Z,34.02
2018-07-27T12:30:41.346Z,34
2018-07-27T12:31:41.383Z,34.19
2018-07-27T12:33:41.184Z,34.46
2018-07-27T12:35:56.174Z,34.7
2018-07-27T12:36:41.280Z,34.62
2018-07-27T12:37:41.575Z,34.64
2018-07-27T12:38:41.344Z,34.59
2018-07-27T12:39:41.378Z,34.46
2018-07-27T12:40:41.413Z,34.43
2018-07-27T12:41:41.703Z,34.42
2018-07-27T12:42:41.933Z,34.06
2018-07-27T12:43:41.764Z,33.86
2018-07-27T12:44:56.538Z,33.75
2018-07-27T12:45:41.571Z,33.71
2018-07-27T12:46:41.605Z,33.56
2018-07-27T12:47:41.894Z,33.59
2018-07-27T12:48:41.924Z,33.5
2018-07-27T12:49:41.965Z,33.42
2018-07-27T12:50:41.993Z,33.59
2018-07-27T12:51:42.019Z,33.73
2018-07-27T12:52:56.716Z,33.87
2018-07-27T12:53:42.085Z,34.03
2018-07-27T12:54:42.114Z,34.1
2018-07-27T12:55:42.144Z,34.24
2018-07-27T12:56:42.182Z,34.31
2018-07-27T12:58:41.988Z,34.34
2018-07-27T12:59:42.283Z,34.58
2018-07-27T13:00:42.050Z,34.88
2018-07-27T13:01:42.079Z,34.85
2018-07-27T13:02:42.113Z,34.85
2018-07-27T13:03:42.406Z,34.69
2018-07-27T13:04:42.439Z,34.43
2018-07-27T13:05:42.472Z,34.5
2018-07-27T13:06:42.495Z,34.44
2018-07-27T13:07:42.532Z,34.43
2018-07-27T13:08:42.303Z,34.46
2018-07-27T13:09:42.332Z,34.61
2018-07-27T13:10:42.417Z,34.32
2018-07-27T13:11:42.710Z,34.31
2018-07-27T13:12:42.693Z,34.21
2018-07-27T13:13:42.720Z,34.31
2018-07-27T13:14:42.763Z,34.44
2018-07-27T13:15:42.786Z,34.58
2018-07-27T13:17:42.855Z,34.32
2018-07-27T13:18:42.882Z,34.49
2018-07-27T13:19:42.915Z,34.53
2018-07-27T13:21:42.819Z,34.17
2018-07-27T13:22:42.758Z,34.09
2018-07-27T13:23:42.782Z,34.06
2018-07-27T13:25:08.264Z,34.22
2018-07-27T13:25:43.110Z,34.21
2018-07-27T13:26:43.017Z,34.1
2018-07-27T13:27:42.657Z,34.08
2018-07-27T13:28:42.942Z,34.16
2018-07-27T13:29:43.239Z,34.32
2018-07-27T13:30:43.263Z,34.25
2018-07-27T13:31:43.042Z,34.09
2018-07-27T13:32:57.995Z,34.28
2018-07-27T13:34:43.608Z,34.35
2018-07-27T13:36:43.457Z,34.85
2018-07-27T13:37:43.230Z,34.88
2018-07-27T13:38:43.261Z,34.97
2018-07-27T13:39:58.329Z,34.85
2018-07-27T13:40:58.247Z,34.77
2018-07-27T13:41:58.279Z,34.56
2018-07-27T13:42:43.648Z,34.61
2018-07-27T13:43:43.789Z,34.43
2018-07-27T13:44:43.716Z,34.34
2018-07-27T13:45:43.742Z,34
2018-07-27T13:46:43.773Z,33.61
2018-07-27T13:47:43.810Z,33.32